Pagrindinis puslapis
METAR-TAF:

METAR-TAF

Oro uostai :

Dušanbė, Tadžikija

platuma: 38-33N, ilguma: 068-47E, Aukštis: 803 m

Dabartinis oras

Ataskaita buvo paskelbta 21 minutes, ne 03:00 UTC
Vėjas 2 kt nuo kintamojo kryptimis
Temperatūra -11°C
Drėgmė 85%
Slėgis 1033 hPa
Matomumas: 0800 m
Rūkas lopais

METAR: UTDD 240300Z VRB01MPS 1100 0800E R09/P2000N BCFG NSC M11/M13 Q1033 R09/29//50 TEMPO 0500 FZFG RMK QFE705/0940

Laikas: 08:21 (03:21 UTC)

Prognozė

Ataskaita buvo paskelbta 3 valandos ir 21 minutes, ne 00:00 UTC
Prognozė galioja nuo 24 metu 01 UTC su 24 metu 13 UTC
Vėjas 4 kt nuo kintamojo kryptimis
Matomumas: 2100 m
Išsisklaidę debesys ne aukštis 2000 ft
Su prošvaistėmis ne aukštis 5000 ft
rūkana, dūmai
Laikinai
nuo 23 metu 01 UTC su 24 metu 03 UTC
Matomumas: 1000 m
rūkana, dūmai
Laikinai
nuo 24 metu 03 UTC su 24 metu 07 UTC
Matomumas: 0400 m
ne aukštis 200 ft
įšaldymas rūko, dūmai

TAF: UTDD 240000Z 2401/2413 VRB02MPS 2100 BR FU SCT020 BKN050 TEMPO 2301/2403 1000 BR FU TEMPO 2403/2407 0400 FZFG FU VV002

Orai ataskaitas ir orų prognozės (METAR, TAF).

turimą stotys yra geltonos ir raudonos taškus žemėlapyje.

Perkelti pele per norėdami pamatyti stoties vardą.

Tada spustelėkite, norėdami matyti oro stebėjimo ir prognozės.

Norėdami pakeisti žemėlapį: spustelėkite ant žalios mygtukų su juodo kryžiaus žemyn,; žalią mygtuką su brūkšneliu, jei norite nutolinti; arba žalių rodyklių gretimoms žemėlapius.


METAR-TAF: